Norddeutschland Verkehrsflughäfen

2019/03/23 21:20 EDDH 232120Z 31003KT CAVOK 05/03 Q1031 NOSIG
2008/11/04 23:50 TAF AMD EDDH 042350Z 050007 CNL= TAF AMD EDDV 042350Z 050007 CNL
2019/03/23 18:27 TAF EDDH 231700Z 2318/2424 30008KT 9999 FEW030 BECMG 2319/2321 VRB03KT TEMPO 2400/2408 2500 BCFG BECMG 2409/2411 28008KT

2019/03/23 21:20 EDDV 232120Z 34004KT 9999 FEW046 05/03 Q1031
2008/11/04 23:50 TAF AMD TAF AMD EDDV 042350Z 050007 CNL
2019/03/23 18:27 TAF EDDV 231700Z 2318/2418 32008KT 9999 BKN030 TEMPO 2318/2320 4500 -DZ BR BKN009 BECMG 2319/2321 VRB02KT TEMPO 2400/2408 2500 BCFG PROB40 TEMPO 2401/2407 0300 FG BKN001 BECMG 2409/2412 31007KT

2019/03/23 21:20 EDDW 232120Z 33004KT 300V360 CAVOK 05/04 Q1031
2008/11/04 23:50 TAF AMD EDDW 042350Z 050007 CNL
2019/03/23 18:27 TAF TAF EDDW 231700Z 2318/2418 33009KT 9999 SCT030 BECMG 2319/2321 VRB02KT TEMPO 2400/2408 2500 BCFG PROB40 TEMPO 2401/2407 0300 FG BKN001 BECMG 2409/2412 28008KT

2019/03/23 17:50 EDHL 231750Z 29004KT 250V340 CAVOK 09/02 Q1029
2019/03/23 18:54 TAF AMD TAF AMD EDHL 231852Z 2318/2321 CNL
2010/02/22 14:20 METAR EDHL 221420Z 15004KT 110V180 9999 FEW039 SCT120 05/02 Q0990 RMK X

2019/03/23 15:20 EDHK 231520Z 29011KT 9999 FEW039 10/03 Q1028
2019/03/23 16:36 TAF TAF EDHK 231628Z 2316/2318 CNL
2013/08/11 06:39 TAF EDHK 110633Z 1106/1118 24005KT 9999 SCT030 BECMG 1106/1109 25010KT TEMPO 1106/1118 27015G25KT 4500 SHRA BKN012CB

2019/03/23 16:50 EDVE 231650Z 29005KT 6000 BKN019 OVC024 10/07 Q1029
2019/03/23 18:27 TAF EDVE 231700Z 2318/2321 31005KT 7000 BKN020 TEMPO 2318/2321 4500 -DZ BR BKN009 BKN012 BECMG 2319/2321 VRB03KT
2009/02/18 05:53 TAF TAF EDVE 180553Z 1806/1819 30003KT 9999 FEW025